createdAt,value
2018-03-02T00:02:24.810Z,40.23
2018-03-02T00:04:53.147Z,33.20
2018-03-02T00:07:21.563Z,35.13
2018-03-02T00:09:49.948Z,36.10
2018-03-02T00:12:18.312Z,35.03
2018-03-02T00:14:47.666Z,37.70
2018-03-02T00:17:15.995Z,35.13
2018-03-02T00:19:45.303Z,33.37
2018-03-02T00:22:13.569Z,31.93
2018-03-02T00:24:42.020Z,33.67
2018-03-02T00:27:10.475Z,35.47
2018-03-02T00:29:38.745Z,38.17
2018-03-02T00:32:06.986Z,36.53
2018-03-02T00:34:35.226Z,32.50
2018-03-02T00:37:03.578Z,35.10
2018-03-02T00:39:31.822Z,38.20
2018-03-02T00:42:00.069Z,36.77
2018-03-02T00:44:28.336Z,37.53
2018-03-02T00:46:58.085Z,35.57
2018-03-02T00:49:30.444Z,39.23
2018-03-02T00:51:59.454Z,36.63
2018-03-02T00:54:27.701Z,34.80
2018-03-02T00:56:56.021Z,33.00
2018-03-02T00:59:25.470Z,34.80
2018-03-02T01:01:53.849Z,32.50
2018-03-02T01:04:22.255Z,39.17
2018-03-02T01:06:51.273Z,34.40
2018-03-02T01:09:19.602Z,42.47
2018-03-02T01:11:48.007Z,42.87
2018-03-02T01:14:17.018Z,31.10
2018-03-02T01:16:46.033Z,33.53
2018-03-02T01:19:14.425Z,37.37
2018-03-02T01:21:43.780Z,31.70
2018-03-02T01:24:12.021Z,41.13
2018-03-02T01:26:40.433Z,36.23
2018-03-02T01:29:09.449Z,32.60
2018-03-02T01:31:37.772Z,36.70
2018-03-02T01:34:06.188Z,34.43
2018-03-02T01:36:35.198Z,35.83
2018-03-02T01:39:03.526Z,32.77
2018-03-02T01:41:32.289Z,32.70
2018-03-02T01:44:00.597Z,33.63
2018-03-02T01:46:28.969Z,35.77
2018-03-02T01:48:57.736Z,40.70
2018-03-02T01:51:48.395Z,38.87
2018-03-02T01:54:16.672Z,35.80
2018-03-02T01:56:45.116Z,37.40
2018-03-02T01:59:13.355Z,36.07
2018-03-02T02:01:41.771Z,37.83
2018-03-02T02:04:10.061Z,36.50
2018-03-02T02:06:38.437Z,39.40
2018-03-02T02:09:07.020Z,39.30
2018-03-02T02:11:35.497Z,41.30
2018-03-02T02:14:03.753Z,37.10
2018-03-02T02:16:32.026Z,39.40
2018-03-02T02:19:00.282Z,35.47
2018-03-02T02:21:29.317Z,46.43
2018-03-02T02:23:57.911Z,37.50
2018-03-02T02:26:26.286Z,37.23
2018-03-02T02:28:54.521Z,38.10
2018-03-02T02:31:23.791Z,38.40
2018-03-02T02:33:53.986Z,40.27
2018-03-02T02:36:22.441Z,39.80
2018-03-02T02:38:50.734Z,38.03
2018-03-02T02:41:19.122Z,37.17
2018-03-02T02:43:47.707Z,36.77
2018-03-02T02:46:16.045Z,37.93
2018-03-02T02:48:44.459Z,38.90
2018-03-02T02:51:12.710Z,37.33
2018-03-02T02:53:41.075Z,37.50
2018-03-02T02:56:09.327Z,43.63
2018-03-02T02:58:37.582Z,40.17
2018-03-02T03:01:05.890Z,39.40
2018-03-02T03:03:34.234Z,39.10
2018-03-02T03:06:02.611Z,38.67
2018-03-02T03:08:31.369Z,37.20
2018-03-02T03:10:59.673Z,33.03
2018-03-02T03:13:28.214Z,45.33
2018-03-02T03:15:56.473Z,35.63
2018-03-02T03:18:24.721Z,35.77
2018-03-02T03:20:52.981Z,39.60
2018-03-02T03:23:22.210Z,34.80
2018-03-02T03:25:51.225Z,37.40
2018-03-02T03:28:19.750Z,42.37
2018-03-02T03:30:48.316Z,39.70
2018-03-02T03:33:16.553Z,42.57
2018-03-02T03:35:44.803Z,40.00
2018-03-02T03:38:14.028Z,36.93
2018-03-02T03:40:43.047Z,42.00
2018-03-02T03:43:11.446Z,39.23
2018-03-02T03:45:39.726Z,43.67
2018-03-02T03:48:07.969Z,39.90
2018-03-02T03:50:36.224Z,38.80
2018-03-02T03:53:05.509Z,42.73
2018-03-02T03:55:33.784Z,41.07
2018-03-02T03:58:02.046Z,33.70
2018-03-02T04:00:30.317Z,35.43
2018-03-02T04:02:58.594Z,36.40
2018-03-02T04:05:27.281Z,39.50
2018-03-02T04:07:57.095Z,42.10
2018-03-02T04:10:25.344Z,37.20
2018-03-02T04:12:53.590Z,42.70
2018-03-02T04:15:22.218Z,39.50
2018-03-02T04:17:50.465Z,45.47
2018-03-02T04:20:18.719Z,37.07
2018-03-02T04:22:47.913Z,44.43
2018-03-02T04:25:17.141Z,39.87
2018-03-02T04:27:45.393Z,39.10
2018-03-02T04:30:13.704Z,36.00
2018-03-02T04:32:41.974Z,40.87
2018-03-02T04:35:10.228Z,42.40
2018-03-02T04:37:38.849Z,40.90
2018-03-02T04:40:07.356Z,42.97
2018-03-02T04:42:35.596Z,37.10
2018-03-02T04:45:03.869Z,40.07
2018-03-02T04:47:32.119Z,39.07
2018-03-02T04:50:00.365Z,34.67
2018-03-02T04:52:28.640Z,37.13
2018-03-02T04:54:56.897Z,39.27
2018-03-02T04:57:25.158Z,38.20
2018-03-02T04:59:53.960Z,39.37
2018-03-02T05:02:22.230Z,32.33
2018-03-02T05:04:50.483Z,40.83
2018-03-02T05:07:18.757Z,37.60
2018-03-02T05:09:47.008Z,37.50
2018-03-02T05:12:15.261Z,36.77
2018-03-02T05:14:43.538Z,40.43
2018-03-02T05:17:11.793Z,39.77
2018-03-02T05:19:40.033Z,38.60
2018-03-02T05:22:09.377Z,40.43
2018-03-02T05:24:37.629Z,43.17
2018-03-02T05:27:06.298Z,41.07
2018-03-02T05:29:34.573Z,45.77
2018-03-02T05:32:02.826Z,39.40
2018-03-02T05:34:31.073Z,39.30
2018-03-02T05:36:59.398Z,36.13
2018-03-02T05:39:27.649Z,41.30
2018-03-02T05:41:55.914Z,36.50
2018-03-02T05:44:24.485Z,31.50
2018-03-02T05:46:52.742Z,39.57
2018-03-02T05:49:20.988Z,38.97
2018-03-02T05:51:49.265Z,43.53
2018-03-02T05:54:18.288Z,41.33
2018-03-02T05:56:46.537Z,38.53
2018-03-02T05:59:14.877Z,37.80
2018-03-02T06:01:43.109Z,39.90
2018-03-02T06:04:11.376Z,42.33
2018-03-02T06:06:39.901Z,42.00
2018-03-02T06:09:08.154Z,39.63
2018-03-02T06:11:36.406Z,36.83
2018-03-02T06:14:04.682Z,45.30
2018-03-02T06:16:33.705Z,41.70
2018-03-02T06:19:01.953Z,43.23
2018-03-02T06:21:30.277Z,41.20
2018-03-02T06:23:58.668Z,41.83
2018-03-02T06:26:26.902Z,39.30
2018-03-02T06:28:55.533Z,37.10
2018-03-02T06:31:23.786Z,46.87
2018-03-02T06:33:52.041Z,46.47
2018-03-02T06:36:20.321Z,41.20
2018-03-02T06:38:48.568Z,40.90
2018-03-02T06:41:16.853Z,44.53
2018-03-02T06:43:45.917Z,41.67
2018-03-02T06:46:14.169Z,38.80
2018-03-02T06:48:42.769Z,45.10
2018-03-02T06:51:11.463Z,37.77
2018-03-02T06:53:39.701Z,43.47
2018-03-02T06:56:07.954Z,37.47
2018-03-02T06:58:36.226Z,45.03
2018-03-02T07:01:04.482Z,44.67
2018-03-02T07:03:32.738Z,41.37
2018-03-02T07:06:01.017Z,43.00
2018-03-02T07:08:29.257Z,41.93
2018-03-02T07:10:57.505Z,46.27
2018-03-02T07:13:25.843Z,38.47
2018-03-02T07:15:54.089Z,38.30
2018-03-02T07:18:22.337Z,37.30
2018-03-02T07:20:50.614Z,42.53
2018-03-02T07:23:19.629Z,39.93
2018-03-02T07:25:47.985Z,45.43
2018-03-02T07:28:17.017Z,46.90
2018-03-02T07:30:45.665Z,42.90
2018-03-02T07:33:14.681Z,33.50
2018-03-02T07:35:43.234Z,39.97
2018-03-02T07:38:11.484Z,42.27
2018-03-02T07:40:39.721Z,40.07
2018-03-02T07:43:07.993Z,40.73
2018-03-02T07:45:36.239Z,37.33
2018-03-02T07:48:05.246Z,46.30
2018-03-02T07:50:34.278Z,38.00
2018-03-02T07:53:02.518Z,41.80
2018-03-02T07:55:30.774Z,34.10
2018-03-02T07:57:59.721Z,42.57
2018-03-02T08:00:30.036Z,44.93
2018-03-02T08:02:58.281Z,40.40
2018-03-02T08:05:27.314Z,42.13
2018-03-02T08:07:55.562Z,38.27
2018-03-02T08:10:23.809Z,38.50
2018-03-02T08:12:54.178Z,41.37
2018-03-02T08:15:23.120Z,34.53
2018-03-02T08:17:52.146Z,37.40
2018-03-02T08:20:20.666Z,41.43
2018-03-02T08:22:48.913Z,37.10
2018-03-02T08:25:17.248Z,46.53
2018-03-02T08:27:45.512Z,42.30
2018-03-02T08:30:13.753Z,44.20
2018-03-02T08:32:42.280Z,39.53
2018-03-02T08:35:11.034Z,41.93
2018-03-02T08:37:39.266Z,41.70
2018-03-02T08:40:08.496Z,41.03
2018-03-02T08:42:37.402Z,36.53
2018-03-02T08:45:05.649Z,33.87
2018-03-02T08:47:34.662Z,37.03
2018-03-02T08:50:02.950Z,39.60
2018-03-02T08:52:31.190Z,42.33
2018-03-02T08:54:59.437Z,39.17
2018-03-02T08:57:28.798Z,35.53
2018-03-02T08:59:58.516Z,38.57
2018-03-02T09:02:30.937Z,43.47
2018-03-02T09:05:01.800Z,44.07
2018-03-02T09:07:30.853Z,33.60
2018-03-02T09:09:59.109Z,35.43
2018-03-02T09:12:27.349Z,36.13
2018-03-02T09:14:55.620Z,40.23
2018-03-02T09:17:24.066Z,41.07
2018-03-02T09:19:52.310Z,35.57
2018-03-02T09:22:20.651Z,38.43
2018-03-02T09:24:48.910Z,37.40
2018-03-02T09:27:17.267Z,38.73
2018-03-02T09:29:45.701Z,36.33
2018-03-02T09:32:13.964Z,39.37
2018-03-02T09:34:42.517Z,40.60
2018-03-02T09:37:11.614Z,36.30
2018-03-02T09:39:39.858Z,42.33
2018-03-02T09:42:08.189Z,34.57
2018-03-02T09:44:37.281Z,43.73
2018-03-02T09:47:05.522Z,38.13
2018-03-02T09:49:33.765Z,39.60
2018-03-02T09:52:02.037Z,39.10
2018-03-02T09:54:30.290Z,38.43
2018-03-02T09:56:58.542Z,42.10
2018-03-02T09:59:26.808Z,39.30
2018-03-02T10:01:55.049Z,38.70
2018-03-02T10:04:23.298Z,39.40
2018-03-02T10:06:52.555Z,40.20
2018-03-02T10:09:20.793Z,38.77
2018-03-02T10:11:49.038Z,38.03
2018-03-02T10:14:17.306Z,39.23
2018-03-02T10:16:45.549Z,37.73
2018-03-02T10:19:13.791Z,37.13
2018-03-02T10:21:42.054Z,39.80
2018-03-02T10:24:10.305Z,34.70
2018-03-02T10:26:38.570Z,39.77
2018-03-02T10:29:07.101Z,36.90
2018-03-02T10:31:36.104Z,43.03
2018-03-02T10:34:04.346Z,36.93
2018-03-02T10:36:32.868Z,40.80
2018-03-02T10:39:01.113Z,37.00
2018-03-02T10:41:29.403Z,41.03
2018-03-02T10:43:57.621Z,39.17
2018-03-02T10:46:25.869Z,35.87
2018-03-02T10:48:54.109Z,34.77
2018-03-02T10:51:23.279Z,36.53
2018-03-02T10:53:51.834Z,44.20
2018-03-02T10:56:20.100Z,37.63
2018-03-02T10:58:48.564Z,34.63
2018-03-02T11:01:23.321Z,38.70
2018-03-02T11:03:57.674Z,40.80
2018-03-02T11:06:25.918Z,37.50
2018-03-02T11:08:54.171Z,37.63
2018-03-02T11:11:22.539Z,37.90
2018-03-02T11:13:50.783Z,47.00
2018-03-02T11:16:19.033Z,35.83
2018-03-02T11:18:47.338Z,38.13
2018-03-02T11:21:15.590Z,42.37
2018-03-02T11:23:43.844Z,37.27
2018-03-02T11:26:12.113Z,42.23
2018-03-02T11:28:41.125Z,51.30
2018-03-02T11:31:09.446Z,40.30
2018-03-02T11:33:37.760Z,36.63
2018-03-02T11:36:06.037Z,37.07
2018-03-02T11:38:34.475Z,41.23
2018-03-02T11:41:05.137Z,40.40
2018-03-02T11:43:33.481Z,43.93
2018-03-02T11:46:01.724Z,41.27
2018-03-02T11:48:30.063Z,50.33
2018-03-02T11:50:58.845Z,34.50
2018-03-02T11:53:31.383Z,39.07
2018-03-02T11:55:59.633Z,42.43
2018-03-02T11:58:28.790Z,44.67
2018-03-02T12:00:57.828Z,41.40
2018-03-02T12:03:26.257Z,39.37
2018-03-02T12:05:54.627Z,37.27
2018-03-02T12:08:22.874Z,40.27
2018-03-02T12:10:51.124Z,39.70
2018-03-02T12:13:19.457Z,41.43
2018-03-02T12:15:47.772Z,43.47
2018-03-02T12:18:16.013Z,41.10
2018-03-02T12:20:47.037Z,37.33
2018-03-02T12:23:15.293Z,39.13
2018-03-02T12:25:43.585Z,42.23
2018-03-02T12:28:11.844Z,39.80
2018-03-02T12:30:40.119Z,46.63
2018-03-02T12:33:08.742Z,41.33
2018-03-02T12:35:38.047Z,47.60
2018-03-02T12:38:06.846Z,44.33
2018-03-02T12:40:35.120Z,44.77
2018-03-02T12:43:03.360Z,38.03
2018-03-02T12:45:31.772Z,43.20
2018-03-02T12:48:00.011Z,41.33
2018-03-02T12:50:28.253Z,42.83
2018-03-02T12:52:56.621Z,39.87
2018-03-02T12:55:24.978Z,45.10
2018-03-02T12:57:53.977Z,41.53
2018-03-02T13:00:22.350Z,44.27
2018-03-02T13:02:50.969Z,40.60
2018-03-02T13:05:19.222Z,47.77
2018-03-02T13:07:53.400Z,45.97
2018-03-02T13:10:23.214Z,53.90
2018-03-02T13:12:51.737Z,41.87
2018-03-02T13:15:21.815Z,43.37
2018-03-02T13:17:52.866Z,52.03
2018-03-02T13:20:23.755Z,43.17
2018-03-02T13:22:52.385Z,40.47
2018-03-02T13:25:26.778Z,43.17
2018-03-02T13:28:07.986Z,44.80
2018-03-02T13:30:37.281Z,54.47
2018-03-02T13:33:18.148Z,43.63
2018-03-02T13:35:47.765Z,48.07
2018-03-02T13:38:16.941Z,45.03
2018-03-02T13:40:58.249Z,46.37
2018-03-02T13:43:26.508Z,44.33
2018-03-02T13:45:55.949Z,42.87
2018-03-02T13:48:36.716Z,45.07
2018-03-02T13:51:05.977Z,46.87
2018-03-02T13:53:34.221Z,46.10
2018-03-02T13:56:03.188Z,42.60
2018-03-02T13:58:31.443Z,48.07
2018-03-02T14:01:00.057Z,48.90
2018-03-02T14:03:40.053Z,44.87
2018-03-02T14:06:08.481Z,42.30
2018-03-02T14:08:36.726Z,51.90
2018-03-02T14:11:05.441Z,43.30
2018-03-02T14:13:34.433Z,50.83
2018-03-02T14:16:03.501Z,46.80
2018-03-02T14:18:31.817Z,42.40
2018-03-02T14:21:01.265Z,51.33
2018-03-02T14:23:30.271Z,45.63
2018-03-02T14:25:58.541Z,48.23
2018-03-02T14:28:27.580Z,44.00
2018-03-02T14:30:55.821Z,44.27
2018-03-02T14:33:24.417Z,46.50
2018-03-02T14:35:54.019Z,50.27
2018-03-02T14:38:22.674Z,48.50
2018-03-02T14:40:51.707Z,44.50
2018-03-02T14:43:19.949Z,43.80
2018-03-02T14:45:48.193Z,49.90
2018-03-02T14:48:16.556Z,50.50
2018-03-02T14:50:45.856Z,45.13
2018-03-02T14:53:15.177Z,44.23
2018-03-02T14:55:44.476Z,51.00
2018-03-02T14:58:13.346Z,46.07
2018-03-02T15:00:41.593Z,48.43
2018-03-02T15:03:21.126Z,47.03
2018-03-02T15:05:49.609Z,48.80
2018-03-02T15:08:17.954Z,47.57
2018-03-02T15:10:46.717Z,44.70
2018-03-02T15:13:14.993Z,51.10
2018-03-02T15:15:43.269Z,50.20
2018-03-02T15:18:11.525Z,49.00
2018-03-02T15:20:39.761Z,45.30
2018-03-02T15:23:08.009Z,47.23
2018-03-02T15:25:36.289Z,47.13
2018-03-02T15:28:04.535Z,47.20
2018-03-02T15:30:32.931Z,48.97
2018-03-02T15:33:01.245Z,45.63
2018-03-02T15:35:29.702Z,44.50
2018-03-02T15:37:57.926Z,46.10
2018-03-02T15:40:26.297Z,49.40
2018-03-02T15:42:54.625Z,67.27
2018-03-02T15:45:22.909Z,56.00
2018-03-02T15:47:51.193Z,48.67
2018-03-02T15:50:20.377Z,52.13
2018-03-02T15:52:48.621Z,48.03
2018-03-02T15:55:17.825Z,48.77
2018-03-02T15:57:46.078Z,50.87
2018-03-02T16:00:14.333Z,52.43
2018-03-02T16:02:43.528Z,50.80
2018-03-02T16:05:12.538Z,48.37
2018-03-02T16:07:41.550Z,52.63
2018-03-02T16:10:09.851Z,50.40
2018-03-02T16:12:38.101Z,51.97
2018-03-02T16:15:06.426Z,51.50
2018-03-02T16:17:34.846Z,51.57
2018-03-02T16:20:03.086Z,51.37
2018-03-02T16:22:31.335Z,48.93
2018-03-02T16:24:59.794Z,47.00
2018-03-02T16:27:28.042Z,49.20
2018-03-02T16:29:57.213Z,48.80
2018-03-02T16:32:25.965Z,51.70
2018-03-02T16:34:54.321Z,49.77
2018-03-02T16:37:23.337Z,49.00
2018-03-02T16:39:51.733Z,52.03
2018-03-02T16:42:20.689Z,51.30
2018-03-02T16:44:48.895Z,46.47
2018-03-02T16:47:17.401Z,47.27
2018-03-02T16:49:45.645Z,49.50
2018-03-02T16:52:14.121Z,51.50
2018-03-02T16:54:42.382Z,49.20
2018-03-02T16:57:10.624Z,51.30
2018-03-02T16:59:38.870Z,47.80
2018-03-02T17:02:07.451Z,51.87
2018-03-02T17:04:35.750Z,50.10
2018-03-02T17:07:03.989Z,47.73
2018-03-02T17:09:32.264Z,53.13
2018-03-02T17:12:00.514Z,61.27
2018-03-02T17:14:28.965Z,51.97
2018-03-02T17:16:57.230Z,53.03
2018-03-02T17:19:25.505Z,44.60
2018-03-02T17:21:53.785Z,48.20
2018-03-02T17:24:22.273Z,50.10
2018-03-02T17:26:50.521Z,52.70
2018-03-02T17:29:18.756Z,51.70
2018-03-02T17:31:47.033Z,55.70
2018-03-02T17:34:16.049Z,50.70
2018-03-02T17:36:44.370Z,53.20
2018-03-02T17:39:12.645Z,48.80
2018-03-02T17:41:42.057Z,49.47
2018-03-02T17:44:10.741Z,50.50
2018-03-02T17:46:39.246Z,53.40
2018-03-02T17:49:07.542Z,56.20
2018-03-02T17:51:36.553Z,48.30
2018-03-02T17:54:04.836Z,50.10
2018-03-02T17:56:33.066Z,50.17
2018-03-02T17:59:03.482Z,56.33
2018-03-02T18:01:32.245Z,47.70
2018-03-02T18:04:00.485Z,47.03
2018-03-02T18:06:30.757Z,47.53
2018-03-02T18:08:59.202Z,58.57
2018-03-02T18:11:27.513Z,49.20
2018-03-02T18:13:55.901Z,47.77
2018-03-02T18:16:24.174Z,49.47
2018-03-02T18:18:52.548Z,51.10
2018-03-02T18:21:21.261Z,53.23
2018-03-02T18:23:49.749Z,51.77
2018-03-02T18:26:18.773Z,57.43
2018-03-02T18:28:47.782Z,50.57
2018-03-02T18:31:16.165Z,57.33
2018-03-02T18:33:44.671Z,55.53
2018-03-02T18:36:12.902Z,56.77
2018-03-02T18:38:41.181Z,48.27
2018-03-02T18:41:09.602Z,45.70
2018-03-02T18:43:37.989Z,62.10
2018-03-02T18:46:06.257Z,51.87
2018-03-02T18:48:36.593Z,50.60
2018-03-02T18:51:04.857Z,49.43
2018-03-02T18:53:33.441Z,49.10
2018-03-02T18:56:01.670Z,49.63
2018-03-02T18:58:30.109Z,54.60
2018-03-02T19:00:58.594Z,49.73
2018-03-02T19:03:26.878Z,49.37
2018-03-02T19:05:55.245Z,54.77
2018-03-02T19:08:23.645Z,49.30
2018-03-02T19:10:53.851Z,48.20
2018-03-02T19:13:25.678Z,53.43
2018-03-02T19:15:53.977Z,52.07
2018-03-02T19:18:23.374Z,46.60
2018-03-02T19:20:53.850Z,48.80
2018-03-02T19:23:22.861Z,49.70
2018-03-02T19:25:51.185Z,50.97
2018-03-02T19:28:19.601Z,54.10
2018-03-02T19:30:48.620Z,60.50
2018-03-02T19:33:16.942Z,52.30
2018-03-02T19:35:45.702Z,53.30
2018-03-02T19:38:14.005Z,48.90
2018-03-02T19:40:42.397Z,49.53
2018-03-02T19:43:10.801Z,53.53
2018-03-02T19:45:40.994Z,52.90
2018-03-02T19:48:09.568Z,54.43
2018-03-02T19:50:39.005Z,51.37
2018-03-02T19:53:08.022Z,52.90
2018-03-02T19:55:36.350Z,54.93
2018-03-02T19:58:04.819Z,51.97
2018-03-02T20:00:33.089Z,57.30
2018-03-02T20:03:01.701Z,50.17
2018-03-02T20:05:34.185Z,52.77
2018-03-02T20:08:03.566Z,57.63
2018-03-02T20:10:31.841Z,54.73
2018-03-02T20:13:00.258Z,53.73
2018-03-02T20:15:29.273Z,57.10
2018-03-02T20:17:57.516Z,50.97
2018-03-02T20:20:26.045Z,60.10
2018-03-02T20:22:54.285Z,54.40
2018-03-02T20:25:23.313Z,56.57
2018-03-02T20:27:52.113Z,52.40
2018-03-02T20:30:20.414Z,57.43
2018-03-02T20:32:48.805Z,55.30
2018-03-02T20:35:17.370Z,51.10
2018-03-02T20:37:45.610Z,55.77
2018-03-02T20:40:13.862Z,56.87
2018-03-02T20:42:42.713Z,51.63
2018-03-02T20:45:11.065Z,55.70
2018-03-02T20:47:39.434Z,58.23
2018-03-02T20:50:07.747Z,57.77
2018-03-02T20:52:36.215Z,59.77
2018-03-02T20:55:04.385Z,57.53
2018-03-02T20:57:32.662Z,55.00
2018-03-02T21:00:00.914Z,52.40
2018-03-02T21:02:29.345Z,54.03
2018-03-02T21:04:58.101Z,53.87
2018-03-02T21:07:27.348Z,61.80
2018-03-02T21:09:55.714Z,57.77
2018-03-02T21:12:24.287Z,60.17
2018-03-02T21:14:52.535Z,52.80
2018-03-02T21:17:20.864Z,52.27
2018-03-02T21:19:49.263Z,60.67
2018-03-02T21:22:18.333Z,56.37
2018-03-02T21:24:46.780Z,49.17
2018-03-02T21:27:15.405Z,52.90
2018-03-02T21:29:43.865Z,55.50
2018-03-02T21:32:12.103Z,55.13
2018-03-02T21:34:40.366Z,54.10
2018-03-02T21:37:08.605Z,63.00
2018-03-02T21:39:36.852Z,54.10
2018-03-02T21:42:05.122Z,54.80
2018-03-02T21:44:34.766Z,55.60
2018-03-02T21:47:03.006Z,55.70
2018-03-02T21:49:32.173Z,61.00
2018-03-02T21:52:00.413Z,58.00
2018-03-02T21:54:28.698Z,56.93
2018-03-02T21:56:56.958Z,53.63
2018-03-02T21:59:25.200Z,59.13
2018-03-02T22:01:53.446Z,53.57
2018-03-02T22:04:21.933Z,50.67
2018-03-02T22:06:51.285Z,52.10
2018-03-02T22:09:19.534Z,54.40
2018-03-02T22:11:48.374Z,53.57
2018-03-02T22:14:16.618Z,52.47
2018-03-02T22:16:44.877Z,59.30
2018-03-02T22:19:13.292Z,59.83
2018-03-02T22:21:41.524Z,53.37
2018-03-02T22:24:09.765Z,51.77
2018-03-02T22:26:38.034Z,59.77
2018-03-02T22:29:06.277Z,51.33
2018-03-02T22:31:34.530Z,48.27
2018-03-02T22:34:03.154Z,50.13
2018-03-02T22:36:31.405Z,53.50
2018-03-02T22:38:59.650Z,49.70
2018-03-02T22:41:28.090Z,53.57
2018-03-02T22:43:56.473Z,46.57
2018-03-02T22:46:24.713Z,49.53
2018-03-02T22:48:52.986Z,50.63
2018-03-02T22:51:21.442Z,50.17
2018-03-02T22:53:50.462Z,56.30
2018-03-02T22:56:19.164Z,50.17
2018-03-02T22:58:47.450Z,51.33
2018-03-02T23:01:15.677Z,57.17
2018-03-02T23:03:44.074Z,64.23
2018-03-02T23:06:12.325Z,52.23
2018-03-02T23:08:41.356Z,56.23
2018-03-02T23:11:09.631Z,60.77
2018-03-02T23:13:37.881Z,58.10
2018-03-02T23:16:06.126Z,55.90
2018-03-02T23:18:34.582Z,59.10
2018-03-02T23:21:02.833Z,61.33
2018-03-02T23:23:31.085Z,58.50
2018-03-02T23:25:59.369Z,54.43
2018-03-02T23:28:28.386Z,60.77
2018-03-02T23:30:56.633Z,58.20
2018-03-02T23:33:25.118Z,60.57
2018-03-02T23:35:54.137Z,61.27
2018-03-02T23:38:23.149Z,58.93
2018-03-02T23:40:51.837Z,61.77
2018-03-02T23:43:20.077Z,57.77
2018-03-02T23:45:48.403Z,57.60
2018-03-02T23:48:17.544Z,67.43
2018-03-02T23:50:46.562Z,60.73
2018-03-02T23:53:15.078Z,73.03
2018-03-02T23:55:43.366Z,62.17
2018-03-02T23:58:11.613Z,61.67
